sim
Sign-in with your pilot id or email,
or register
Callsign
Passwort

Schedule Details

Flight Number: OEO2719
Departure: Venice Marco Polo Airport (LIPZ) at 06:50
Arrival: Munich Airport (EDDM) at 08:00

Weather Information
Getting current METAR information for LIPZ 240220Z 36004KT 1000 R04R/0750D BR BKN003 17/17 Q1010 NOSIG
Getting current METAR information for EDDM 240220Z VRB02KT CAVOK 10/09 Q1009 NOSIG

Schedule Frequency

Route Map